createdAt,value
2023-05-05T00:00:57.123Z,0.3333333333333333
2023-05-05T00:03:56.796Z,0
2023-05-05T00:06:57.830Z,0
2023-05-05T00:09:57.481Z,0
2023-05-05T00:12:57.281Z,0
2023-05-05T00:15:57.078Z,0.3333333333333333
2023-05-05T00:18:56.846Z,0
2023-05-05T00:21:58.108Z,0
2023-05-05T00:24:57.556Z,0
2023-05-05T00:27:57.281Z,0
2023-05-05T00:30:57.018Z,0
2023-05-05T00:33:57.721Z,0
2023-05-05T00:36:58.160Z,0.3333333333333333
2023-05-05T00:39:57.238Z,0
2023-05-05T00:42:57.885Z,0
2023-05-05T00:45:57.764Z,0
2023-05-05T00:48:57.768Z,0.6666666666666666
2023-05-05T00:51:57.496Z,0
2023-05-05T00:54:57.881Z,0
2023-05-05T00:57:57.493Z,0
2023-05-05T01:00:57.642Z,0
2023-05-05T01:03:56.689Z,0
2023-05-05T01:06:57.252Z,0
2023-05-05T01:10:07.561Z,0
2023-05-05T01:12:56.657Z,0
2023-05-05T01:15:57.378Z,0
2023-05-05T01:18:57.185Z,0
2023-05-05T01:21:57.274Z,0
2023-05-05T01:24:57.173Z,0.3333333333333333
2023-05-05T01:27:56.839Z,0
2023-05-05T01:30:57.850Z,0
2023-05-05T01:33:56.973Z,0
2023-05-05T01:36:57.758Z,0
2023-05-05T01:39:57.764Z,0
2023-05-05T01:42:57.009Z,0
2023-05-05T01:45:57.628Z,0.3333333333333333
2023-05-05T01:48:57.130Z,0
2023-05-05T01:51:57.569Z,0
2023-05-05T01:54:57.836Z,0
2023-05-05T01:57:57.565Z,0.3333333333333333
2023-05-05T02:00:57.369Z,0.3333333333333333
2023-05-05T02:03:57.435Z,0
2023-05-05T02:06:57.350Z,0.3333333333333333
2023-05-05T02:09:57.480Z,0
2023-05-05T02:12:57.062Z,0
2023-05-05T02:15:57.744Z,0
2023-05-05T02:18:57.488Z,0
2023-05-05T02:21:57.725Z,0
2023-05-05T02:24:58.112Z,0
2023-05-05T02:27:57.874Z,0
2023-05-05T02:30:58.082Z,0
2023-05-05T02:33:57.502Z,0
2023-05-05T02:36:56.966Z,0.3333333333333333
2023-05-05T02:39:57.740Z,0
2023-05-05T02:42:56.954Z,0
2023-05-05T02:45:57.820Z,0
2023-05-05T02:48:57.094Z,0
2023-05-05T02:51:57.025Z,0.3333333333333333
2023-05-05T02:54:57.398Z,0
2023-05-05T02:57:56.841Z,0
2023-05-05T03:00:57.663Z,0
2023-05-05T03:03:57.534Z,0
2023-05-05T03:06:56.981Z,0
2023-05-05T03:09:57.663Z,0
2023-05-05T03:12:57.382Z,0
2023-05-05T03:15:56.744Z,0
2023-05-05T03:18:57.184Z,0
2023-05-05T03:21:57.899Z,0
2023-05-05T03:24:56.969Z,0.6666666666666666
2023-05-05T03:27:57.452Z,0
2023-05-05T03:30:57.980Z,1
2023-05-05T03:33:56.721Z,2
2023-05-05T03:36:57.690Z,3
2023-05-05T03:39:57.305Z,6.666666666666667
2023-05-05T03:42:57.125Z,10.666666666666666
2023-05-05T03:45:57.034Z,13
2023-05-05T03:48:57.360Z,17
2023-05-05T03:51:57.246Z,23.333333333333332
2023-05-05T03:54:56.860Z,30
2023-05-05T03:57:57.630Z,37
2023-05-05T04:00:57.890Z,50.333333333333336
2023-05-05T04:03:57.338Z,70.66666666666667
2023-05-05T04:06:57.060Z,83.33333333333333
2023-05-05T04:09:57.554Z,98
2023-05-05T04:12:57.309Z,116.33333333333333
2023-05-05T04:15:57.929Z,136.66666666666666
2023-05-05T04:18:57.576Z,154
2023-05-05T04:21:57.621Z,172.66666666666666
2023-05-05T04:24:57.812Z,197
2023-05-05T04:27:57.145Z,227
2023-05-05T04:30:57.711Z,261.3333333333333
2023-05-05T04:33:57.039Z,297.3333333333333
2023-05-05T04:36:57.176Z,321
2023-05-05T04:39:57.800Z,316.3333333333333
2023-05-05T04:42:57.935Z,312.6666666666667
2023-05-05T04:45:58.460Z,311
2023-05-05T04:48:57.865Z,314.3333333333333
2023-05-05T04:51:57.086Z,319.3333333333333
2023-05-05T04:54:57.573Z,343
2023-05-05T04:57:57.718Z,359.6666666666667
2023-05-05T05:00:57.250Z,378
2023-05-05T05:03:57.759Z,400.3333333333333
2023-05-05T05:06:59.233Z,425.3333333333333
2023-05-05T05:09:57.372Z,451.6666666666667
2023-05-05T05:12:57.894Z,491.3333333333333
2023-05-05T05:15:57.700Z,534
2023-05-05T05:18:59.055Z,565
2023-05-05T05:21:57.681Z,588.3333333333334
2023-05-05T05:24:58.495Z,622.3333333333334
2023-05-05T05:28:08.830Z,570.6666666666666
2023-05-05T05:30:58.101Z,713
2023-05-05T05:33:57.670Z,736.3333333333334
2023-05-05T05:36:56.883Z,702.3333333333334
2023-05-05T05:39:57.752Z,725.6666666666666
2023-05-05T05:42:57.519Z,648
2023-05-05T05:45:57.794Z,735.6666666666666
2023-05-05T05:48:57.667Z,690
2023-05-05T05:51:57.775Z,650
2023-05-05T05:54:57.692Z,600
2023-05-05T05:57:57.342Z,565.6666666666666
2023-05-05T06:00:58.443Z,519
2023-05-05T06:03:57.100Z,473.3333333333333
2023-05-05T06:06:58.076Z,492.3333333333333
2023-05-05T06:09:57.542Z,505.3333333333333
2023-05-05T06:12:57.337Z,499.6666666666667
2023-05-05T06:15:58.129Z,517.6666666666666
2023-05-05T06:18:57.158Z,524.6666666666666
2023-05-05T06:21:57.546Z,539
2023-05-05T06:24:57.326Z,556.3333333333334
2023-05-05T06:27:57.328Z,568.3333333333334
2023-05-05T06:30:57.807Z,588.3333333333334
2023-05-05T06:33:56.972Z,555.6666666666666
2023-05-05T06:36:57.213Z,597.3333333333334
2023-05-05T06:39:57.783Z,607.3333333333334
2023-05-05T06:42:57.787Z,610.6666666666666
2023-05-05T06:45:57.849Z,605
2023-05-05T06:48:57.455Z,641.6666666666666
2023-05-05T06:51:56.911Z,661
2023-05-05T06:54:57.244Z,667.3333333333334
2023-05-05T06:57:56.644Z,675.6666666666666
2023-05-05T07:00:57.449Z,690.3333333333334
2023-05-05T07:03:57.723Z,707.3333333333334
2023-05-05T07:06:57.496Z,712
2023-05-05T07:09:57.464Z,697.6666666666666
2023-05-05T07:12:57.122Z,692.3333333333334
2023-05-05T07:15:57.258Z,712.6666666666666
2023-05-05T07:18:57.379Z,705
2023-05-05T07:21:57.452Z,696
2023-05-05T07:24:57.570Z,713.3333333333334
2023-05-05T07:27:58.017Z,700
2023-05-05T07:30:57.518Z,683
2023-05-05T07:33:57.137Z,722.3333333333334
2023-05-05T07:36:57.282Z,800
2023-05-05T07:39:56.899Z,844.3333333333334
2023-05-05T07:42:57.921Z,800
2023-05-05T07:45:57.153Z,898.6666666666666
2023-05-05T07:48:57.176Z,923
2023-05-05T07:51:56.960Z,936.6666666666666
2023-05-05T07:54:56.938Z,940.3333333333334
2023-05-05T07:57:57.750Z,947.6666666666666
2023-05-05T08:00:58.093Z,944.3333333333334
2023-05-05T08:03:56.714Z,940.6666666666666
2023-05-05T08:06:57.670Z,933
2023-05-05T08:09:58.177Z,929
2023-05-05T08:12:56.777Z,918.3333333333334
2023-05-05T08:15:57.624Z,894.6666666666666
2023-05-05T08:18:57.803Z,919.3333333333334
2023-05-05T08:22:00.007Z,894
2023-05-05T08:24:57.450Z,882.3333333333334
2023-05-05T08:27:57.009Z,933.6666666666666
2023-05-05T08:30:58.007Z,925.6666666666666
2023-05-05T08:33:57.385Z,929.3333333333334
2023-05-05T08:36:57.468Z,930
2023-05-05T08:39:57.224Z,939.6666666666666
2023-05-05T08:42:57.240Z,943.6666666666666
2023-05-05T08:45:57.198Z,940
2023-05-05T08:48:57.046Z,938.3333333333334
2023-05-05T08:51:57.892Z,932
2023-05-05T08:54:57.089Z,929.6666666666666
2023-05-05T08:57:56.523Z,932
2023-05-05T09:00:57.926Z,935
2023-05-05T09:03:57.616Z,933.3333333333334
2023-05-05T09:06:57.763Z,931.6666666666666
2023-05-05T09:09:57.619Z,914.6666666666666
2023-05-05T09:12:57.691Z,903
2023-05-05T09:15:57.442Z,893
2023-05-05T09:18:57.706Z,868
2023-05-05T09:21:57.573Z,879.3333333333334
2023-05-05T09:24:57.647Z,914.6666666666666
2023-05-05T09:27:57.534Z,920
2023-05-05T09:30:57.633Z,913.6666666666666
2023-05-05T09:33:57.398Z,898.3333333333334
2023-05-05T09:36:57.395Z,911.6666666666666
2023-05-05T09:39:57.534Z,920
2023-05-05T09:42:57.643Z,925.3333333333334
2023-05-05T09:45:57.445Z,933.6666666666666
2023-05-05T09:48:58.191Z,941
2023-05-05T09:51:57.118Z,939.6666666666666
2023-05-05T09:54:57.394Z,938.6666666666666
2023-05-05T09:57:57.301Z,939
2023-05-05T10:00:57.399Z,938.6666666666666
2023-05-05T10:03:57.510Z,930.3333333333334
2023-05-05T10:06:57.161Z,901.3333333333334
2023-05-05T10:09:57.931Z,835.6666666666666
2023-05-05T10:12:57.992Z,775.6666666666666
2023-05-05T10:15:58.113Z,701.6666666666666
2023-05-05T10:18:57.158Z,625
2023-05-05T10:21:56.864Z,594
2023-05-05T10:24:56.915Z,567.3333333333334
2023-05-05T10:27:57.915Z,557
2023-05-05T10:30:57.779Z,589.6666666666666
2023-05-05T10:33:57.212Z,645.3333333333334
2023-05-05T10:36:58.125Z,703.6666666666666
2023-05-05T10:39:57.868Z,754
2023-05-05T10:42:57.582Z,789.6666666666666
2023-05-05T10:45:57.420Z,789.3333333333334
2023-05-05T10:48:57.433Z,735.6666666666666
2023-05-05T10:51:57.366Z,630.6666666666666
2023-05-05T10:54:56.968Z,546
2023-05-05T10:57:57.369Z,512.6666666666666
2023-05-05T11:00:57.945Z,508
2023-05-05T11:04:17.014Z,542.6666666666666
2023-05-05T11:06:57.082Z,534.3333333333334
2023-05-05T11:09:57.292Z,534.6666666666666
2023-05-05T11:12:56.863Z,516.3333333333334
2023-05-05T11:15:57.247Z,506.3333333333333
2023-05-05T11:18:57.426Z,528
2023-05-05T11:21:57.056Z,580.6666666666666
2023-05-05T11:24:57.203Z,652
2023-05-05T11:27:57.306Z,715.3333333333334
2023-05-05T11:30:58.088Z,863
2023-05-05T11:33:57.537Z,943.3333333333334
2023-05-05T11:36:57.810Z,952
2023-05-05T11:39:57.778Z,956
2023-05-05T11:42:56.674Z,955.6666666666666
2023-05-05T11:45:57.564Z,953.6666666666666
2023-05-05T11:48:57.048Z,951.3333333333334
2023-05-05T11:51:57.694Z,948.3333333333334
2023-05-05T11:54:57.599Z,949
2023-05-05T11:57:57.867Z,949.6666666666666
2023-05-05T12:00:57.516Z,949
2023-05-05T12:03:57.735Z,950.3333333333334
2023-05-05T12:06:57.832Z,951.3333333333334
2023-05-05T12:09:58.231Z,949.6666666666666
2023-05-05T12:12:57.389Z,953
2023-05-05T12:15:57.487Z,954
2023-05-05T12:18:57.138Z,954.6666666666666
2023-05-05T12:21:57.619Z,952.3333333333334
2023-05-05T12:24:57.587Z,953.6666666666666
2023-05-05T12:27:57.323Z,952.3333333333334
2023-05-05T12:30:57.814Z,952
2023-05-05T12:33:57.676Z,953.6666666666666
2023-05-05T12:36:57.696Z,955
2023-05-05T12:39:58.234Z,956.3333333333334
2023-05-05T12:42:57.031Z,956
2023-05-05T12:45:57.717Z,955.6666666666666
2023-05-05T12:48:56.918Z,955.6666666666666
2023-05-05T12:51:57.666Z,954.6666666666666
2023-05-05T12:54:57.390Z,954.3333333333334
2023-05-05T12:57:58.371Z,954.3333333333334
2023-05-05T13:00:57.807Z,955.6666666666666
2023-05-05T13:03:57.660Z,955.3333333333334
2023-05-05T13:06:57.634Z,954.6666666666666
2023-05-05T13:09:57.561Z,953
2023-05-05T13:12:58.068Z,952.6666666666666
2023-05-05T13:15:57.561Z,951.6666666666666
2023-05-05T13:18:57.185Z,950
2023-05-05T13:21:57.207Z,951
2023-05-05T13:24:57.060Z,951.3333333333334
2023-05-05T13:27:57.345Z,952
2023-05-05T13:30:58.188Z,950.6666666666666
2023-05-05T13:33:57.406Z,950.6666666666666
2023-05-05T13:36:57.628Z,952
2023-05-05T13:39:57.003Z,954.3333333333334
2023-05-05T13:42:56.937Z,953.6666666666666
2023-05-05T13:46:05.701Z,954
2023-05-05T13:48:57.062Z,955
2023-05-05T13:51:56.898Z,954.3333333333334
2023-05-05T13:54:57.476Z,954.3333333333334
2023-05-05T13:57:57.246Z,953
2023-05-05T14:00:57.738Z,952.6666666666666
2023-05-05T14:03:58.085Z,953
2023-05-05T14:06:57.430Z,953.3333333333334
2023-05-05T14:09:57.666Z,953.3333333333334
2023-05-05T14:12:57.010Z,953.3333333333334
2023-05-05T14:15:57.886Z,950.3333333333334
2023-05-05T14:18:58.061Z,946.3333333333334
2023-05-05T14:21:57.315Z,938
2023-05-05T14:24:57.692Z,930.3333333333334
2023-05-05T14:27:57.277Z,937.6666666666666
2023-05-05T14:30:58.061Z,935.6666666666666
2023-05-05T14:33:57.785Z,932
2023-05-05T14:36:57.066Z,932.3333333333334
2023-05-05T14:39:57.226Z,933.6666666666666
2023-05-05T14:42:57.862Z,847.3333333333334
2023-05-05T14:45:58.061Z,754
2023-05-05T14:48:57.551Z,716.6666666666666
2023-05-05T14:51:57.848Z,780
2023-05-05T14:54:58.000Z,732
2023-05-05T14:57:57.241Z,643.6666666666666
2023-05-05T15:00:57.531Z,548
2023-05-05T15:03:57.372Z,489.3333333333333
2023-05-05T15:06:57.377Z,466.3333333333333
2023-05-05T15:09:57.761Z,465.3333333333333
2023-05-05T15:12:57.628Z,409.6666666666667
2023-05-05T15:15:57.793Z,370.6666666666667
2023-05-05T15:18:57.463Z,364.6666666666667
2023-05-05T15:21:58.104Z,370.3333333333333
2023-05-05T15:24:57.068Z,381
2023-05-05T15:27:57.574Z,421.3333333333333
2023-05-05T15:30:57.192Z,426.6666666666667
2023-05-05T15:33:57.581Z,398.3333333333333
2023-05-05T15:36:57.294Z,340.6666666666667
2023-05-05T15:39:57.459Z,303
2023-05-05T15:42:57.426Z,286.3333333333333
2023-05-05T15:45:58.237Z,314
2023-05-05T15:48:57.924Z,347.6666666666667
2023-05-05T15:51:57.564Z,362.3333333333333
2023-05-05T15:54:58.123Z,348
2023-05-05T15:57:58.125Z,342.6666666666667
2023-05-05T16:00:57.936Z,337.6666666666667
2023-05-05T16:03:57.419Z,330.6666666666667
2023-05-05T16:06:58.112Z,330.6666666666667
2023-05-05T16:09:57.594Z,322.3333333333333
2023-05-05T16:12:58.013Z,310
2023-05-05T16:15:57.497Z,297.6666666666667
2023-05-05T16:18:58.457Z,259.3333333333333
2023-05-05T16:21:57.928Z,243
2023-05-05T16:24:56.881Z,232
2023-05-05T16:27:57.830Z,210
2023-05-05T16:30:58.598Z,218
2023-05-05T16:33:57.263Z,228.66666666666666
2023-05-05T16:36:57.522Z,220
2023-05-05T16:39:57.526Z,197
2023-05-05T16:42:57.418Z,176.66666666666666
2023-05-05T16:45:56.980Z,172
2023-05-05T16:48:58.135Z,159.33333333333334
2023-05-05T16:51:57.512Z,134
2023-05-05T16:54:57.477Z,109.33333333333333
2023-05-05T16:57:57.515Z,85.33333333333333
2023-05-05T17:00:59.025Z,63.333333333333336
2023-05-05T17:03:57.127Z,50
2023-05-05T17:06:57.698Z,40
2023-05-05T17:09:57.317Z,33.333333333333336
2023-05-05T17:12:57.775Z,25
2023-05-05T17:15:57.549Z,20.666666666666668
2023-05-05T17:18:57.475Z,16.666666666666668
2023-05-05T17:21:57.448Z,13.666666666666666
2023-05-05T17:24:57.721Z,10.666666666666666
2023-05-05T17:27:57.023Z,9.333333333333334
2023-05-05T17:30:57.549Z,9
2023-05-05T17:33:57.577Z,9.333333333333334
2023-05-05T17:36:57.572Z,7.666666666666667
2023-05-05T17:39:57.610Z,7.333333333333333
2023-05-05T17:42:57.205Z,8.333333333333334
2023-05-05T17:45:57.806Z,5.333333333333333
2023-05-05T17:48:57.776Z,5.666666666666667
2023-05-05T17:51:57.160Z,4.333333333333333
2023-05-05T17:54:57.888Z,5
2023-05-05T17:57:58.271Z,4.666666666666667
2023-05-05T18:00:58.022Z,3
2023-05-05T18:03:56.833Z,3
2023-05-05T18:06:57.869Z,1
2023-05-05T18:09:58.325Z,2
2023-05-05T18:12:57.002Z,0.6666666666666666
2023-05-05T18:15:58.267Z,1.6666666666666667
2023-05-05T18:18:57.309Z,1.3333333333333333
2023-05-05T18:21:57.004Z,3
2023-05-05T18:24:57.451Z,4.333333333333333
2023-05-05T18:27:57.181Z,6
2023-05-05T18:30:57.094Z,8.666666666666666
2023-05-05T18:33:57.909Z,15
2023-05-05T18:36:57.818Z,26.666666666666668
2023-05-05T18:39:57.953Z,28.333333333333332
2023-05-05T18:42:56.989Z,30
2023-05-05T18:45:57.926Z,40.333333333333336
2023-05-05T18:48:57.340Z,23.666666666666668
2023-05-05T18:51:57.903Z,7
2023-05-05T18:54:57.457Z,2.3333333333333335
2023-05-05T18:57:57.205Z,1.3333333333333333
2023-05-05T19:01:25.849Z,0
2023-05-05T19:03:57.910Z,0
2023-05-05T19:06:57.375Z,0
2023-05-05T19:09:57.366Z,0
2023-05-05T19:12:57.376Z,0
2023-05-05T19:15:57.642Z,0
2023-05-05T19:18:57.669Z,0
2023-05-05T19:21:57.241Z,0
2023-05-05T19:24:57.902Z,0
2023-05-05T19:27:57.456Z,0
2023-05-05T19:30:58.126Z,0
2023-05-05T19:33:56.840Z,0.3333333333333333
2023-05-05T19:36:57.244Z,0
2023-05-05T19:39:57.300Z,0.3333333333333333
2023-05-05T19:42:57.501Z,1
2023-05-05T19:45:57.731Z,0
2023-05-05T19:48:57.042Z,0.3333333333333333
2023-05-05T19:51:56.997Z,0
2023-05-05T19:54:57.956Z,0
2023-05-05T19:57:57.500Z,0
2023-05-05T20:00:57.580Z,0
2023-05-05T20:03:57.915Z,0
2023-05-05T20:06:57.714Z,0
2023-05-05T20:09:58.672Z,0
2023-05-05T20:12:57.802Z,0.3333333333333333
2023-05-05T20:15:57.586Z,0
2023-05-05T20:18:57.838Z,0
2023-05-05T20:21:57.585Z,0
2023-05-05T20:24:57.959Z,0
2023-05-05T20:27:57.809Z,0
2023-05-05T20:30:58.208Z,0
2023-05-05T20:33:57.944Z,0
2023-05-05T20:36:57.562Z,0
2023-05-05T20:39:57.828Z,0.3333333333333333
2023-05-05T20:42:57.601Z,0
2023-05-05T20:45:57.901Z,0
2023-05-05T20:48:58.060Z,0
2023-05-05T20:51:58.094Z,0
2023-05-05T20:54:57.576Z,0.6666666666666666
2023-05-05T20:57:57.527Z,0
2023-05-05T21:00:57.656Z,0
2023-05-05T21:03:57.020Z,0
2023-05-05T21:06:58.037Z,1
2023-05-05T21:09:57.173Z,1.3333333333333333
2023-05-05T21:12:57.836Z,0
2023-05-05T21:15:57.567Z,0
2023-05-05T21:18:57.248Z,0
2023-05-05T21:21:57.000Z,0.3333333333333333
2023-05-05T21:24:57.610Z,0
2023-05-05T21:27:57.441Z,0.3333333333333333
2023-05-05T21:31:19.848Z,0.3333333333333333
2023-05-05T21:33:57.454Z,0
2023-05-05T21:36:57.659Z,0.3333333333333333
2023-05-05T21:39:57.980Z,0
2023-05-05T21:42:57.717Z,0
2023-05-05T21:45:57.804Z,0
2023-05-05T21:48:57.791Z,0
2023-05-05T21:51:57.234Z,0
2023-05-05T21:54:57.949Z,0
2023-05-05T21:57:57.766Z,0
2023-05-05T22:00:58.434Z,0
2023-05-05T22:03:57.469Z,0
2023-05-05T22:06:56.856Z,0
2023-05-05T22:09:57.111Z,0
2023-05-05T22:12:57.683Z,0
2023-05-05T22:15:57.080Z,0.3333333333333333
2023-05-05T22:18:57.958Z,0
2023-05-05T22:21:57.762Z,0
2023-05-05T22:24:57.881Z,1.3333333333333333
2023-05-05T22:27:57.221Z,0.3333333333333333
2023-05-05T22:30:57.231Z,0
2023-05-05T22:33:57.143Z,0
2023-05-05T22:36:57.786Z,0
2023-05-05T22:39:57.305Z,0
2023-05-05T22:42:56.627Z,0
2023-05-05T22:45:57.356Z,0
2023-05-05T22:48:57.152Z,0
2023-05-05T22:51:57.573Z,0
2023-05-05T22:54:57.294Z,0
2023-05-05T22:57:57.449Z,0
2023-05-05T23:00:57.445Z,0.6666666666666666
2023-05-05T23:03:57.549Z,0
2023-05-05T23:06:57.019Z,0
2023-05-05T23:09:57.299Z,0
2023-05-05T23:12:56.592Z,0
2023-05-05T23:15:57.059Z,0
2023-05-05T23:18:56.648Z,0
2023-05-05T23:21:57.485Z,1
2023-05-05T23:24:57.524Z,0
2023-05-05T23:27:56.869Z,0
2023-05-05T23:30:58.069Z,0
2023-05-05T23:33:57.145Z,0
2023-05-05T23:36:58.069Z,0
2023-05-05T23:39:58.089Z,0
2023-05-05T23:42:57.570Z,0
2023-05-05T23:45:57.201Z,0
2023-05-05T23:48:57.697Z,0
2023-05-05T23:51:57.633Z,0
2023-05-05T23:54:57.380Z,0
2023-05-05T23:57:56.805Z,1
